createdAt,value
2019-02-19T00:01:53.415Z,0.10
2019-02-19T00:04:22.662Z,0.00
2019-02-19T00:06:51.959Z,0.00
2019-02-19T00:09:21.139Z,-0.10
2019-02-19T00:11:50.480Z,-0.10
2019-02-19T00:14:19.753Z,-0.20
2019-02-19T00:16:49.070Z,-0.20
2019-02-19T00:19:18.399Z,-0.30
2019-02-19T00:21:47.686Z,-0.30
2019-02-19T00:24:16.998Z,-0.40
2019-02-19T00:26:46.336Z,-0.40
2019-02-19T00:29:15.598Z,-0.40
2019-02-19T00:31:44.919Z,-0.30
2019-02-19T00:34:14.226Z,-0.40
2019-02-19T00:36:43.528Z,-0.40
2019-02-19T00:39:12.842Z,-0.40
2019-02-19T00:41:42.124Z,-0.50
2019-02-19T00:44:11.394Z,-0.60
2019-02-19T00:46:40.616Z,-0.60
2019-02-19T00:49:09.812Z,-0.70
2019-02-19T00:51:39.018Z,-0.70
2019-02-19T00:54:08.291Z,-0.80
2019-02-19T00:56:37.570Z,-0.70
2019-02-19T00:59:06.786Z,-0.70
2019-02-19T01:01:36.006Z,-0.70
2019-02-19T01:04:05.305Z,-0.60
2019-02-19T01:06:34.611Z,-0.60
2019-02-19T01:09:05.524Z,-0.60
2019-02-19T01:11:34.822Z,-0.60
2019-02-19T01:14:04.148Z,-0.60
2019-02-19T01:16:33.340Z,-0.60
2019-02-19T01:19:02.601Z,-0.70
2019-02-19T01:21:31.806Z,-0.70
2019-02-19T01:24:01.048Z,-0.80
2019-02-19T01:26:30.322Z,-0.80
2019-02-19T01:28:59.562Z,-0.90
2019-02-19T01:31:28.950Z,-0.80
2019-02-19T01:33:58.232Z,-0.80
2019-02-19T01:36:27.587Z,-0.80
2019-02-19T01:38:56.834Z,-0.80
2019-02-19T01:41:26.082Z,-0.80
2019-02-19T01:43:55.361Z,-0.80
2019-02-19T01:46:24.727Z,-0.80
2019-02-19T01:48:54.074Z,-0.70
2019-02-19T01:51:23.363Z,-0.70
2019-02-19T01:53:52.590Z,-0.70
2019-02-19T01:56:21.890Z,-0.70
2019-02-19T01:58:51.067Z,-0.70
2019-02-19T02:01:20.344Z,-0.60
2019-02-19T02:03:49.718Z,-0.60
2019-02-19T02:06:18.900Z,-0.60
2019-02-19T02:08:48.104Z,-0.60
2019-02-19T02:11:17.423Z,-0.60
2019-02-19T02:13:46.668Z,-0.60
2019-02-19T02:16:15.929Z,-0.60
2019-02-19T02:18:45.217Z,-0.60
2019-02-19T02:21:14.472Z,-0.60
2019-02-19T02:23:43.732Z,-0.60
2019-02-19T02:26:13.117Z,-0.70
2019-02-19T02:28:42.370Z,-0.70
2019-02-19T02:31:11.574Z,-0.70
2019-02-19T02:33:40.812Z,-0.80
2019-02-19T02:36:10.011Z,-0.80
2019-02-19T02:38:39.251Z,-0.80
2019-02-19T02:41:08.720Z,-0.80
2019-02-19T02:43:38.037Z,-0.80
2019-02-19T02:46:07.213Z,-0.80
2019-02-19T02:48:36.535Z,-0.80
2019-02-19T02:51:05.891Z,-0.90
2019-02-19T02:53:35.180Z,-0.90
2019-02-19T02:56:04.563Z,-0.90
2019-02-19T02:58:33.840Z,-0.90
2019-02-19T03:01:03.185Z,-1.00
2019-02-19T03:03:32.491Z,-1.00
2019-02-19T03:06:11.100Z,-1.00
2019-02-19T03:08:40.322Z,-1.00
2019-02-19T03:11:09.534Z,-1.00
2019-02-19T03:13:38.813Z,-1.00
2019-02-19T03:16:08.137Z,-1.00
2019-02-19T03:18:37.451Z,-1.10
2019-02-19T03:21:06.726Z,-1.10
2019-02-19T03:23:36.076Z,-1.10
2019-02-19T03:26:05.440Z,-1.10
2019-02-19T03:28:34.775Z,-1.10
2019-02-19T03:31:04.112Z,-1.20
2019-02-19T03:33:33.441Z,-1.20
2019-02-19T03:36:02.733Z,-1.20
2019-02-19T03:38:32.094Z,-1.20
2019-02-19T03:41:01.378Z,-1.10
2019-02-19T03:43:30.673Z,-1.20
2019-02-19T03:45:59.820Z,-1.20
2019-02-19T03:48:29.091Z,-1.20
2019-02-19T03:50:58.247Z,-1.20
2019-02-19T03:53:27.528Z,-1.20
2019-02-19T03:55:56.725Z,-1.20
2019-02-19T03:58:26.047Z,-1.20
2019-02-19T04:00:55.249Z,-1.20
2019-02-19T04:03:24.621Z,-1.20
2019-02-19T04:05:53.932Z,-1.20
2019-02-19T04:08:23.174Z,-1.20
2019-02-19T04:10:52.518Z,-1.20
2019-02-19T04:13:21.840Z,-1.20
2019-02-19T04:15:51.200Z,-1.20
2019-02-19T04:18:20.406Z,-1.20
2019-02-19T04:20:49.635Z,-1.20
2019-02-19T04:23:18.834Z,-1.20
2019-02-19T04:25:48.121Z,-1.20
2019-02-19T04:28:17.312Z,-1.20
2019-02-19T04:30:46.539Z,-1.20
2019-02-19T04:33:15.933Z,-1.20
2019-02-19T04:35:45.259Z,-1.20
2019-02-19T04:38:14.520Z,-1.20
2019-02-19T04:40:43.739Z,-1.20
2019-02-19T04:43:13.046Z,-1.20
2019-02-19T04:45:42.203Z,-1.20
2019-02-19T04:48:11.509Z,-1.20
2019-02-19T04:50:40.693Z,-1.10
2019-02-19T04:53:10.023Z,-1.20
2019-02-19T04:55:39.258Z,-1.10
2019-02-19T04:58:08.525Z,-1.10
2019-02-19T05:00:37.767Z,-1.20
2019-02-19T05:03:07.110Z,-1.20
2019-02-19T05:05:36.367Z,-1.20
2019-02-19T05:08:05.552Z,-1.20
2019-02-19T05:10:34.816Z,-1.20
2019-02-19T05:13:04.133Z,-1.10
2019-02-19T05:15:33.571Z,-1.10
2019-02-19T05:18:02.835Z,-1.10
2019-02-19T05:20:32.203Z,-1.10
2019-02-19T05:23:01.509Z,-1.10
2019-02-19T05:25:30.687Z,-1.20
2019-02-19T05:27:59.993Z,-1.10
2019-02-19T05:30:29.156Z,-1.20
2019-02-19T05:32:58.463Z,-1.20
2019-02-19T05:35:27.817Z,-1.20
2019-02-19T05:37:57.128Z,-1.20
2019-02-19T05:40:26.417Z,-1.20
2019-02-19T05:42:55.655Z,-1.20
2019-02-19T05:45:24.999Z,-1.20
2019-02-19T05:47:54.235Z,-1.30
2019-02-19T05:50:23.467Z,-1.30
2019-02-19T05:52:52.726Z,-1.30
2019-02-19T05:55:21.969Z,-1.30
2019-02-19T05:57:51.232Z,-1.30
2019-02-19T06:00:20.496Z,-1.30
2019-02-19T06:02:49.848Z,-1.30
2019-02-19T06:05:19.062Z,-1.30
2019-02-19T06:07:48.310Z,-1.30
2019-02-19T06:10:17.561Z,-1.30
2019-02-19T06:12:46.807Z,-1.30
2019-02-19T06:15:16.123Z,-1.30
2019-02-19T06:17:45.383Z,-1.20
2019-02-19T06:20:14.739Z,-1.10
2019-02-19T06:22:43.987Z,-1.10
2019-02-19T06:25:13.249Z,-1.10
2019-02-19T06:27:42.627Z,-1.00
2019-02-19T06:30:12.951Z,-1.00
2019-02-19T06:32:42.241Z,-1.00
2019-02-19T06:35:11.567Z,-0.90
2019-02-19T06:37:40.855Z,-0.80
2019-02-19T06:40:21.822Z,-0.50
2019-02-19T06:42:51.181Z,-0.10
2019-02-19T06:45:20.484Z,0.30
2019-02-19T06:47:49.710Z,0.70
2019-02-19T06:50:19.112Z,1.10
2019-02-19T06:52:48.378Z,1.50
2019-02-19T06:55:17.675Z,1.90
2019-02-19T06:57:46.886Z,2.00
2019-02-19T07:00:16.117Z,2.10
2019-02-19T07:02:56.867Z,2.50
2019-02-19T07:05:26.279Z,2.90
2019-02-19T07:07:55.639Z,3.20
2019-02-19T07:10:24.855Z,3.30
2019-02-19T07:12:54.099Z,3.60
2019-02-19T07:15:23.358Z,4.10
2019-02-19T07:17:52.609Z,4.40
2019-02-19T07:20:21.825Z,4.50
2019-02-19T07:22:51.136Z,4.90
2019-02-19T07:25:20.401Z,5.30
2019-02-19T07:27:49.781Z,5.40
2019-02-19T07:30:19.135Z,6.20
2019-02-19T07:32:48.419Z,6.10
2019-02-19T07:35:17.782Z,6.10
2019-02-19T07:37:47.145Z,6.60
2019-02-19T07:40:17.515Z,6.90
2019-02-19T07:42:46.971Z,7.40
2019-02-19T07:45:16.229Z,7.70
2019-02-19T07:47:45.490Z,7.00
2019-02-19T07:50:14.772Z,7.50
2019-02-19T07:52:44.044Z,8.20
2019-02-19T07:55:13.228Z,8.90
2019-02-19T07:57:42.974Z,8.40
2019-02-19T08:00:12.377Z,8.80
2019-02-19T08:02:41.811Z,9.10
2019-02-19T08:05:11.264Z,8.80
2019-02-19T08:07:40.553Z,9.20
2019-02-19T08:10:10.170Z,9.10
2019-02-19T08:12:39.484Z,9.40
2019-02-19T08:15:09.299Z,9.60
2019-02-19T08:17:39.573Z,9.70
2019-02-19T08:20:15.351Z,9.80
2019-02-19T08:22:39.930Z,10.00
2019-02-19T08:25:09.203Z,10.00
2019-02-19T08:27:38.415Z,10.40
2019-02-19T08:30:08.170Z,10.80
2019-02-19T08:32:37.464Z,11.20
2019-02-19T08:35:06.763Z,11.90
2019-02-19T08:37:35.963Z,12.30
2019-02-19T08:40:05.247Z,12.80
2019-02-19T08:42:34.491Z,13.10
2019-02-19T08:45:03.868Z,12.90
2019-02-19T08:47:42.039Z,12.40
2019-02-19T08:50:04.090Z,12.30
2019-02-19T08:52:33.441Z,12.40
2019-02-19T08:55:02.765Z,13.20
2019-02-19T08:57:32.099Z,13.90
2019-02-19T09:00:01.398Z,13.70
2019-02-19T09:02:30.785Z,14.30
2019-02-19T09:05:00.007Z,13.80
2019-02-19T09:07:29.275Z,13.50
2019-02-19T09:09:58.481Z,13.00
2019-02-19T09:12:27.951Z,13.50
2019-02-19T09:14:57.286Z,14.10
2019-02-19T09:17:26.591Z,14.90
2019-02-19T09:19:55.810Z,15.20
2019-02-19T09:22:25.135Z,15.50
2019-02-19T09:24:54.343Z,15.10
2019-02-19T09:27:23.702Z,15.90
2019-02-19T09:29:53.006Z,16.10
2019-02-19T09:32:22.235Z,15.60
2019-02-19T09:34:52.698Z,15.90
2019-02-19T09:37:22.110Z,16.10
2019-02-19T09:39:51.340Z,15.90
2019-02-19T09:42:20.512Z,15.90
2019-02-19T09:44:49.738Z,16.50
2019-02-19T09:47:18.909Z,16.30
2019-02-19T09:49:48.198Z,16.90
2019-02-19T09:52:17.457Z,16.50
2019-02-19T09:54:46.831Z,16.10
2019-02-19T09:57:16.101Z,15.90
2019-02-19T09:59:45.451Z,16.10
2019-02-19T10:02:14.730Z,16.10
2019-02-19T10:04:44.019Z,15.90
2019-02-19T10:07:13.301Z,17.00
2019-02-19T10:09:42.688Z,17.40
2019-02-19T10:12:11.974Z,18.10
2019-02-19T10:14:41.277Z,18.20
2019-02-19T10:17:10.623Z,18.70
2019-02-19T10:19:39.936Z,18.60
2019-02-19T10:22:09.272Z,18.30
2019-02-19T10:24:38.544Z,18.30
2019-02-19T10:27:07.756Z,18.30
2019-02-19T10:29:37.080Z,18.30
2019-02-19T10:32:06.379Z,19.00
2019-02-19T10:34:35.718Z,19.10
2019-02-19T10:37:04.930Z,18.90
2019-02-19T10:39:34.116Z,18.40
2019-02-19T10:42:03.868Z,19.00
2019-02-19T10:44:33.373Z,19.50
2019-02-19T10:47:02.628Z,19.90
2019-02-19T10:49:31.890Z,20.00
2019-02-19T10:52:01.142Z,20.30
2019-02-19T10:54:30.327Z,19.70
2019-02-19T10:56:59.638Z,20.00
2019-02-19T10:59:28.943Z,20.60
2019-02-19T11:01:58.270Z,20.20
2019-02-19T11:04:27.588Z,19.20
2019-02-19T11:06:56.868Z,20.00
2019-02-19T11:09:26.130Z,20.50
2019-02-19T11:11:55.391Z,21.00
2019-02-19T11:14:24.717Z,21.00
2019-02-19T11:16:53.906Z,21.10
2019-02-19T11:19:23.088Z,20.90
2019-02-19T11:21:52.397Z,20.50
2019-02-19T11:24:21.827Z,21.00
2019-02-19T11:26:51.067Z,20.70
2019-02-19T11:29:20.735Z,20.50
2019-02-19T11:31:50.076Z,20.50
2019-02-19T11:34:19.385Z,20.30
2019-02-19T11:36:48.729Z,20.20
2019-02-19T11:39:18.024Z,19.90
2019-02-19T11:41:47.324Z,21.00
2019-02-19T11:44:16.714Z,21.90
2019-02-19T11:46:45.915Z,22.00
2019-02-19T11:49:15.186Z,22.80
2019-02-19T11:51:44.408Z,22.90
2019-02-19T11:54:13.765Z,21.20
2019-02-19T11:56:43.054Z,21.30
2019-02-19T11:59:12.320Z,21.70
2019-02-19T12:01:41.848Z,22.10
2019-02-19T12:04:11.194Z,22.10
2019-02-19T12:06:40.504Z,22.20
2019-02-19T12:09:09.722Z,21.80
2019-02-19T12:11:38.912Z,21.80
2019-02-19T12:14:08.198Z,21.30
2019-02-19T12:16:37.450Z,20.90
2019-02-19T12:19:06.695Z,21.90
2019-02-19T12:21:35.978Z,23.10
2019-02-19T12:24:05.215Z,21.60
2019-02-19T12:26:34.488Z,19.80
2019-02-19T12:29:03.775Z,18.60
2019-02-19T12:31:33.118Z,18.50
2019-02-19T12:34:02.598Z,18.80
2019-02-19T12:36:32.315Z,18.40
2019-02-19T12:39:02.702Z,18.30
2019-02-19T12:41:32.000Z,17.90
2019-02-19T12:44:01.268Z,16.70
2019-02-19T12:46:30.675Z,16.50
2019-02-19T12:48:59.952Z,16.80
2019-02-19T12:51:29.576Z,17.80
2019-02-19T12:53:58.836Z,18.10
2019-02-19T12:56:28.146Z,17.50
2019-02-19T12:58:57.410Z,16.70
2019-02-19T13:01:26.737Z,15.90
2019-02-19T13:03:56.026Z,15.30
2019-02-19T13:06:25.336Z,15.00
2019-02-19T13:08:54.612Z,14.70
2019-02-19T13:11:23.937Z,14.50
2019-02-19T13:13:53.185Z,14.60
2019-02-19T13:16:22.490Z,14.60
2019-02-19T13:18:51.690Z,14.60
2019-02-19T13:21:20.894Z,14.50
2019-02-19T13:23:50.168Z,14.40
2019-02-19T13:26:19.423Z,14.30
2019-02-19T13:28:48.625Z,14.40
2019-02-19T13:31:17.883Z,14.40
2019-02-19T13:33:47.214Z,14.20
2019-02-19T13:36:16.548Z,14.30
2019-02-19T13:38:45.903Z,14.50
2019-02-19T13:41:15.263Z,14.70
2019-02-19T13:43:44.676Z,14.50
2019-02-19T13:46:13.980Z,14.30
2019-02-19T13:48:43.268Z,14.30
2019-02-19T13:51:15.054Z,14.20
2019-02-19T13:53:57.937Z,14.20
2019-02-19T13:56:27.253Z,13.90
2019-02-19T13:58:56.468Z,13.70
2019-02-19T14:01:25.759Z,13.70
2019-02-19T14:03:55.031Z,13.50
2019-02-19T14:06:24.312Z,13.50
2019-02-19T14:08:53.610Z,13.70
2019-02-19T14:11:22.797Z,13.80
2019-02-19T14:14:14.803Z,13.90
2019-02-19T14:16:53.454Z,13.90
2019-02-19T14:19:37.460Z,13.80
2019-02-19T14:22:41.056Z,13.70
2019-02-19T14:25:38.142Z,13.70
2019-02-19T14:28:25.021Z,13.40
2019-02-19T14:31:25.430Z,13.20
2019-02-19T14:34:22.833Z,13.10
2019-02-19T14:37:09.996Z,13.00
2019-02-19T14:39:51.205Z,13.10
2019-02-19T14:42:45.442Z,13.00
2019-02-19T14:45:36.451Z,13.00
2019-02-19T14:48:23.371Z,13.00
2019-02-19T14:51:11.697Z,12.90
2019-02-19T14:53:52.536Z,12.90
2019-02-19T14:56:34.589Z,12.80
2019-02-19T14:59:34.870Z,12.70
2019-02-19T15:02:23.120Z,12.70
2019-02-19T15:05:20.654Z,12.70
2019-02-19T15:08:07.639Z,12.80
2019-02-19T15:11:14.375Z,12.70
2019-02-19T15:14:05.657Z,12.70
2019-02-19T15:16:47.249Z,12.70
2019-02-19T15:19:44.608Z,12.70
2019-02-19T15:22:23.136Z,12.70
2019-02-19T15:25:26.619Z,12.60
2019-02-19T15:28:23.962Z,12.50
2019-02-19T15:31:01.676Z,12.50
2019-02-19T15:33:52.779Z,12.50
2019-02-19T15:36:39.821Z,12.50
2019-02-19T15:39:34.106Z,12.40
2019-02-19T15:42:22.329Z,12.30
2019-02-19T15:44:59.771Z,12.20
2019-02-19T15:47:48.045Z,12.20
2019-02-19T15:50:28.282Z,12.10
2019-02-19T15:53:15.293Z,12.00
2019-02-19T15:56:03.647Z,12.00
2019-02-19T15:58:43.123Z,11.90
2019-02-19T16:01:30.301Z,11.90
2019-02-19T16:04:18.621Z,11.80
2019-02-19T16:07:00.708Z,11.80
2019-02-19T16:09:47.328Z,11.70
2019-02-19T16:12:30.859Z,11.70
2019-02-19T16:15:28.252Z,11.60
2019-02-19T16:18:04.712Z,11.50
2019-02-19T16:21:08.420Z,11.50
2019-02-19T16:23:58.118Z,11.40
2019-02-19T16:26:58.749Z,11.30
2019-02-19T16:29:59.060Z,11.30
2019-02-19T16:32:39.023Z,11.20
2019-02-19T16:35:33.204Z,11.10
2019-02-19T16:38:28.016Z,11.10
2019-02-19T16:41:28.529Z,11.00
2019-02-19T16:44:15.781Z,11.00
2019-02-19T16:47:10.409Z,10.90
2019-02-19T16:50:06.907Z,10.90
2019-02-19T16:52:50.253Z,10.80
2019-02-19T16:55:34.069Z,10.80
2019-02-19T16:58:14.731Z,10.70
2019-02-19T17:01:04.994Z,10.60
2019-02-19T17:03:52.510Z,10.60
2019-02-19T17:06:43.971Z,10.50
2019-02-19T17:09:24.679Z,10.40
2019-02-19T17:12:11.396Z,10.40
2019-02-19T17:15:09.077Z,10.40
2019-02-19T17:17:52.680Z,10.40
2019-02-19T17:20:41.006Z,10.30
2019-02-19T17:23:15.679Z,10.30
2019-02-19T17:26:03.914Z,10.20
2019-02-19T17:28:52.266Z,10.20
2019-02-19T17:31:31.324Z,10.10
2019-02-19T17:34:26.402Z,10.00
2019-02-19T17:37:18.024Z,10.00
2019-02-19T17:40:07.630Z,9.90
2019-02-19T17:42:58.700Z,9.90
2019-02-19T17:45:45.930Z,10.00
2019-02-19T17:48:43.279Z,10.00
2019-02-19T17:51:50.199Z,9.90
2019-02-19T17:54:30.725Z,9.90
2019-02-19T17:57:24.888Z,9.80
2019-02-19T18:00:15.924Z,9.80
2019-02-19T18:03:07.044Z,9.80
2019-02-19T18:05:46.298Z,9.80
2019-02-19T18:08:46.963Z,9.90
2019-02-19T18:11:35.212Z,9.80
2019-02-19T18:14:17.261Z,9.90
2019-02-19T18:17:14.682Z,9.90
2019-02-19T18:19:44.030Z,9.70
2019-02-19T18:22:13.308Z,9.70
2019-02-19T18:24:42.772Z,9.60
2019-02-19T18:27:12.109Z,9.60
2019-02-19T18:29:41.325Z,9.50
2019-02-19T18:32:10.628Z,9.40
2019-02-19T18:34:39.902Z,9.40
2019-02-19T18:37:09.179Z,9.40
2019-02-19T18:39:38.565Z,9.30
2019-02-19T18:42:07.795Z,9.30
2019-02-19T18:44:37.115Z,9.20
2019-02-19T18:47:06.325Z,9.20
2019-02-19T18:49:35.580Z,9.10
2019-02-19T18:52:04.940Z,9.00
2019-02-19T18:54:34.269Z,8.90
2019-02-19T18:57:03.604Z,8.80
2019-02-19T18:59:33.048Z,8.80
2019-02-19T19:02:02.472Z,8.80
2019-02-19T19:04:31.940Z,8.70
2019-02-19T19:07:01.227Z,8.70
2019-02-19T19:09:30.504Z,8.70
2019-02-19T19:11:59.943Z,8.60
2019-02-19T19:14:29.310Z,8.60
2019-02-19T19:16:58.701Z,8.60
2019-02-19T19:19:28.058Z,8.70
2019-02-19T19:21:57.545Z,8.70
2019-02-19T19:24:26.918Z,8.70
2019-02-19T19:26:56.461Z,8.50
2019-02-19T19:29:25.868Z,8.50
2019-02-19T19:32:14.299Z,8.50
2019-02-19T19:34:43.859Z,8.50
2019-02-19T19:37:13.847Z,8.60
2019-02-19T19:39:43.200Z,8.50
2019-02-19T19:42:12.714Z,8.50
2019-02-19T19:44:42.099Z,8.50
2019-02-19T19:47:11.578Z,8.40
2019-02-19T19:49:41.089Z,8.40
2019-02-19T19:52:10.824Z,8.40
2019-02-19T19:54:40.533Z,8.40
2019-02-19T19:57:10.108Z,8.30
2019-02-19T19:59:39.529Z,8.30
2019-02-19T20:02:08.931Z,8.20
2019-02-19T20:04:38.296Z,8.20
2019-02-19T20:07:07.717Z,8.20
2019-02-19T20:09:37.179Z,8.20
2019-02-19T20:12:06.633Z,8.20
2019-02-19T20:14:36.094Z,8.20
2019-02-19T20:17:05.501Z,8.20
2019-02-19T20:19:34.860Z,8.20
2019-02-19T20:22:04.249Z,8.10
2019-02-19T20:24:33.683Z,8.20
2019-02-19T20:27:03.071Z,8.20
2019-02-19T20:29:32.425Z,8.20
2019-02-19T20:32:01.857Z,8.10
2019-02-19T20:34:31.231Z,8.10
2019-02-19T20:37:00.572Z,8.10
2019-02-19T20:39:30.139Z,8.00
2019-02-19T20:41:59.517Z,8.00
2019-02-19T20:44:28.924Z,8.00
2019-02-19T20:46:58.296Z,8.00
2019-02-19T20:49:27.609Z,8.00
2019-02-19T20:51:56.990Z,7.90
2019-02-19T20:54:26.331Z,7.90
2019-02-19T20:56:55.665Z,7.90
2019-02-19T20:59:25.029Z,7.80
2019-02-19T21:01:54.571Z,7.80
2019-02-19T21:04:23.960Z,7.80
2019-02-19T21:06:53.399Z,7.80
2019-02-19T21:09:22.818Z,7.80
2019-02-19T21:11:52.219Z,7.80
2019-02-19T21:14:21.544Z,7.80
2019-02-19T21:16:51.027Z,7.80
2019-02-19T21:19:20.507Z,7.70
2019-02-19T21:21:49.870Z,7.70
2019-02-19T21:24:19.287Z,7.70
2019-02-19T21:26:48.667Z,7.70
2019-02-19T21:29:18.373Z,7.70
2019-02-19T21:31:47.712Z,7.70
2019-02-19T21:34:17.016Z,7.60
2019-02-19T21:36:46.521Z,7.60
2019-02-19T21:39:16.063Z,7.60
2019-02-19T21:41:45.571Z,7.60
2019-02-19T21:44:15.263Z,7.60
2019-02-19T21:46:44.736Z,7.60
2019-02-19T21:49:14.073Z,7.60
2019-02-19T21:51:43.636Z,7.50
2019-02-19T21:54:12.892Z,7.50
2019-02-19T21:56:42.608Z,7.50
2019-02-19T21:59:12.256Z,7.50
2019-02-19T22:01:41.804Z,7.40
2019-02-19T22:04:11.122Z,7.40
2019-02-19T22:06:40.552Z,7.40
2019-02-19T22:09:09.824Z,7.40
2019-02-19T22:11:39.216Z,7.30
2019-02-19T22:14:08.625Z,7.30
2019-02-19T22:16:37.978Z,7.30
2019-02-19T22:19:07.277Z,7.30
2019-02-19T22:21:50.406Z,7.30
2019-02-19T22:24:35.172Z,7.20
2019-02-19T22:27:06.396Z,7.10
2019-02-19T22:29:36.143Z,7.10
2019-02-19T22:32:05.962Z,7.00
2019-02-19T22:34:36.599Z,7.00
2019-02-19T22:37:06.492Z,7.00
2019-02-19T22:39:35.855Z,7.00
2019-02-19T22:42:05.590Z,7.00
2019-02-19T22:44:35.498Z,7.00
2019-02-19T22:47:04.901Z,6.90
2019-02-19T22:49:34.245Z,6.90
2019-02-19T22:52:11.948Z,6.90
2019-02-19T22:55:06.035Z,6.90
2019-02-19T22:57:35.584Z,6.90
2019-02-19T23:00:08.161Z,6.90
2019-02-19T23:02:37.625Z,6.90
2019-02-19T23:05:07.226Z,6.80
2019-02-19T23:07:36.690Z,6.80
2019-02-19T23:10:06.676Z,6.80
2019-02-19T23:12:36.008Z,6.80
2019-02-19T23:15:05.826Z,6.70
2019-02-19T23:17:35.123Z,6.70
2019-02-19T23:20:05.049Z,6.60
2019-02-19T23:22:34.638Z,6.60
2019-02-19T23:25:04.211Z,6.60
2019-02-19T23:27:33.555Z,6.60
2019-02-19T23:30:02.943Z,6.60
2019-02-19T23:32:32.240Z,6.70
2019-02-19T23:35:23.282Z,6.70
2019-02-19T23:37:52.522Z,6.60
2019-02-19T23:40:21.882Z,6.70
2019-02-19T23:42:51.363Z,6.70
2019-02-19T23:45:20.622Z,6.70
2019-02-19T23:47:49.911Z,6.70
2019-02-19T23:50:19.295Z,6.70
2019-02-19T23:52:48.608Z,6.70
2019-02-19T23:55:17.956Z,6.60
2019-02-19T23:57:47.316Z,6.60
